createdAt,value
2018-11-03T00:01:53.256Z,10.13
2018-11-03T00:04:27.345Z,8.67
2018-11-03T00:07:01.375Z,10.80
2018-11-03T00:09:35.475Z,9.07
2018-11-03T00:12:09.613Z,10.80
2018-11-03T00:14:43.782Z,9.27
2018-11-03T00:17:17.891Z,7.93
2018-11-03T00:19:51.969Z,8.93
2018-11-03T00:22:26.014Z,9.70
2018-11-03T00:25:00.159Z,11.73
2018-11-03T00:27:34.212Z,9.03
2018-11-03T00:30:10.790Z,8.83
2018-11-03T00:32:44.836Z,8.50
2018-11-03T00:35:18.863Z,9.77
2018-11-03T00:37:52.998Z,9.43
2018-11-03T00:40:27.103Z,9.30
2018-11-03T00:43:01.138Z,7.20
2018-11-03T00:45:35.263Z,8.50
2018-11-03T00:48:09.267Z,9.83
2018-11-03T00:50:43.340Z,11.13
2018-11-03T00:53:17.393Z,8.80
2018-11-03T00:55:51.502Z,16.43
2018-11-03T00:58:25.629Z,9.57
2018-11-03T01:00:59.750Z,9.47
2018-11-03T01:03:33.803Z,9.83
2018-11-03T01:06:07.884Z,9.30
2018-11-03T01:08:41.930Z,8.73
2018-11-03T01:11:15.997Z,8.63
2018-11-03T01:13:49.994Z,10.60
2018-11-03T01:16:24.081Z,9.83
2018-11-03T01:18:58.105Z,8.27
2018-11-03T01:21:32.172Z,8.93
2018-11-03T01:24:06.826Z,8.87
2018-11-03T01:26:40.894Z,10.07
2018-11-03T01:29:15.167Z,8.80
2018-11-03T01:31:49.232Z,9.57
2018-11-03T01:34:23.255Z,8.57
2018-11-03T01:36:57.292Z,9.37
2018-11-03T01:39:31.303Z,8.20
2018-11-03T01:42:05.519Z,8.77
2018-11-03T01:44:39.588Z,8.73
2018-11-03T01:47:13.626Z,9.70
2018-11-03T01:49:47.659Z,10.33
2018-11-03T01:52:21.705Z,9.77
2018-11-03T01:54:55.698Z,9.80
2018-11-03T01:57:29.891Z,9.33
2018-11-03T02:00:04.365Z,8.83
2018-11-03T02:02:38.486Z,9.00
2018-11-03T02:05:12.611Z,8.47
2018-11-03T02:07:46.742Z,9.80
2018-11-03T02:10:20.769Z,9.30
2018-11-03T02:12:54.888Z,8.73
2018-11-03T02:15:28.897Z,9.00
2018-11-03T02:18:02.970Z,9.80
2018-11-03T02:20:36.979Z,11.03
2018-11-03T02:23:11.069Z,9.17
2018-11-03T02:25:45.117Z,9.67
2018-11-03T02:28:19.257Z,9.27
2018-11-03T02:30:53.259Z,9.50
2018-11-03T02:33:27.325Z,9.50
2018-11-03T02:36:01.485Z,9.30
2018-11-03T02:38:35.555Z,11.43
2018-11-03T02:41:09.601Z,9.40
2018-11-03T02:43:43.662Z,10.30
2018-11-03T02:46:17.730Z,9.87
2018-11-03T02:48:51.799Z,8.83
2018-11-03T02:51:25.643Z,9.33
2018-11-03T02:53:59.528Z,8.87
2018-11-03T02:56:33.357Z,9.43
2018-11-03T02:59:07.296Z,9.63
2018-11-03T03:01:41.185Z,10.80
2018-11-03T03:04:15.217Z,9.37
2018-11-03T03:06:49.045Z,9.60
2018-11-03T03:09:22.919Z,9.07
2018-11-03T03:11:56.825Z,8.07
2018-11-03T03:14:30.713Z,7.30
2018-11-03T03:17:04.635Z,8.67
2018-11-03T03:19:38.534Z,9.30
2018-11-03T03:22:12.403Z,13.17
2018-11-03T03:24:46.247Z,11.50
2018-11-03T03:27:20.095Z,8.77
2018-11-03T03:29:54.051Z,10.50
2018-11-03T03:32:27.908Z,11.23
2018-11-03T03:35:01.885Z,10.13
2018-11-03T03:37:35.782Z,9.27
2018-11-03T03:40:10.134Z,10.80
2018-11-03T03:42:44.021Z,11.00
2018-11-03T03:45:17.884Z,11.20
2018-11-03T03:47:51.731Z,10.90
2018-11-03T03:50:25.604Z,10.13
2018-11-03T03:52:59.473Z,10.97
2018-11-03T03:55:33.360Z,10.20
2018-11-03T03:58:07.595Z,10.73
2018-11-03T04:00:41.495Z,10.70
2018-11-03T04:03:15.318Z,9.53
2018-11-03T04:05:49.254Z,9.90
2018-11-03T04:08:23.111Z,9.87
2018-11-03T04:10:57.010Z,10.50
2018-11-03T04:13:30.844Z,12.97
2018-11-03T04:16:04.933Z,10.17
2018-11-03T04:18:38.835Z,9.73
2018-11-03T04:21:17.050Z,9.87
2018-11-03T04:23:50.908Z,10.03
2018-11-03T04:26:25.104Z,9.40
2018-11-03T04:28:59.507Z,9.70
2018-11-03T04:31:33.399Z,10.27
2018-11-03T04:34:07.255Z,9.67
2018-11-03T04:36:41.112Z,9.00
2018-11-03T04:39:14.956Z,11.10
2018-11-03T04:41:48.977Z,9.60
2018-11-03T04:44:22.899Z,8.40
2018-11-03T04:46:56.874Z,10.30
2018-11-03T04:49:30.726Z,10.70
2018-11-03T04:52:04.793Z,10.27
2018-11-03T04:54:38.613Z,8.47
2018-11-03T04:57:12.529Z,10.73
2018-11-03T04:59:46.405Z,10.83
2018-11-03T05:02:20.306Z,9.83
2018-11-03T05:04:54.176Z,11.17
2018-11-03T05:07:28.208Z,13.93
2018-11-03T05:10:02.144Z,14.80
2018-11-03T05:12:36.319Z,12.80
2018-11-03T05:15:10.215Z,15.03
2018-11-03T05:17:44.089Z,10.43
2018-11-03T05:20:17.963Z,11.40
2018-11-03T05:22:51.872Z,12.57
2018-11-03T05:25:25.679Z,16.03
2018-11-03T05:27:59.640Z,15.03
2018-11-03T05:30:33.559Z,14.17
2018-11-03T05:33:07.504Z,11.83
2018-11-03T05:35:41.355Z,17.57
2018-11-03T05:38:15.230Z,13.10
2018-11-03T05:40:49.093Z,10.20
2018-11-03T05:43:22.997Z,9.37
2018-11-03T05:45:56.852Z,11.50
2018-11-03T05:48:30.709Z,13.33
2018-11-03T05:51:04.553Z,13.73
2018-11-03T05:53:38.481Z,12.37
2018-11-03T05:56:12.338Z,10.60
2018-11-03T05:58:46.243Z,12.40
2018-11-03T06:01:20.083Z,13.23
2018-11-03T06:03:54.028Z,11.07
2018-11-03T06:06:27.867Z,11.33
2018-11-03T06:09:01.838Z,10.93
2018-11-03T06:11:35.596Z,12.87
2018-11-03T06:14:09.491Z,13.33
2018-11-03T06:16:43.354Z,10.37
2018-11-03T06:19:17.278Z,11.80
2018-11-03T06:21:51.107Z,10.37
2018-11-03T06:24:25.097Z,12.23
2018-11-03T06:26:58.951Z,13.33
2018-11-03T06:29:32.897Z,15.00
2018-11-03T06:32:07.137Z,11.47
2018-11-03T06:34:41.104Z,10.20
2018-11-03T06:37:14.866Z,9.93
2018-11-03T06:39:48.807Z,11.23
2018-11-03T06:42:22.715Z,10.77
2018-11-03T06:44:56.557Z,10.67
2018-11-03T06:47:30.501Z,10.60
2018-11-03T06:50:05.382Z,9.83
2018-11-03T06:52:39.216Z,11.90
2018-11-03T06:55:13.114Z,11.23
2018-11-03T06:57:47.044Z,10.57
2018-11-03T07:00:20.991Z,10.60
2018-11-03T07:02:55.017Z,10.27
2018-11-03T07:05:29.063Z,11.67
2018-11-03T07:08:02.980Z,13.23
2018-11-03T07:10:36.893Z,10.90
2018-11-03T07:13:10.734Z,9.87
2018-11-03T07:15:44.694Z,11.33
2018-11-03T07:18:18.465Z,10.60
2018-11-03T07:20:52.438Z,13.40
2018-11-03T07:23:26.303Z,14.40
2018-11-03T07:26:00.161Z,12.60
2018-11-03T07:28:34.208Z,11.97
2018-11-03T07:31:08.141Z,12.10
2018-11-03T07:33:42.032Z,12.70
2018-11-03T07:36:16.264Z,11.83
2018-11-03T07:38:50.155Z,13.10
2018-11-03T07:41:24.141Z,11.73
2018-11-03T07:43:57.996Z,14.23
2018-11-03T07:46:31.936Z,13.07
2018-11-03T07:49:06.415Z,15.20
2018-11-03T07:51:40.190Z,14.07
2018-11-03T07:54:14.019Z,14.60
2018-11-03T07:56:47.903Z,19.33
2018-11-03T07:59:22.872Z,23.17
2018-11-03T08:01:56.823Z,17.10
2018-11-03T08:04:30.695Z,17.83
2018-11-03T08:07:04.561Z,19.00
2018-11-03T08:09:38.485Z,17.10
2018-11-03T08:12:12.432Z,20.43
2018-11-03T08:14:46.290Z,18.90
2018-11-03T08:17:20.235Z,17.77
2018-11-03T08:19:54.286Z,18.20
2018-11-03T08:22:29.069Z,20.53
2018-11-03T08:25:03.022Z,18.03
2018-11-03T08:27:36.938Z,26.47
2018-11-03T08:30:13.125Z,29.87
2018-11-03T08:32:46.974Z,20.77
2018-11-03T08:35:20.931Z,19.77
2018-11-03T08:37:54.955Z,20.53
2018-11-03T08:40:28.902Z,20.37
2018-11-03T08:43:02.791Z,20.80
2018-11-03T08:45:36.859Z,20.67
2018-11-03T08:48:10.802Z,19.73
2018-11-03T08:50:44.625Z,18.70
2018-11-03T08:53:18.576Z,20.13
2018-11-03T08:55:52.736Z,19.00
2018-11-03T08:58:26.700Z,20.53
2018-11-03T09:01:00.836Z,20.93
2018-11-03T09:03:34.853Z,23.80
2018-11-03T09:06:08.680Z,25.37
2018-11-03T09:08:42.584Z,21.37
2018-11-03T09:11:16.494Z,23.93
2018-11-03T09:13:50.376Z,26.13
2018-11-03T09:16:24.311Z,20.37
2018-11-03T09:18:58.896Z,22.00
2018-11-03T09:21:33.513Z,21.67
2018-11-03T09:24:07.730Z,24.50
2018-11-03T09:26:41.561Z,23.40
2018-11-03T09:29:15.540Z,20.70
2018-11-03T09:31:49.473Z,24.53
2018-11-03T09:34:23.297Z,21.47
2018-11-03T09:36:57.191Z,23.00
2018-11-03T09:39:31.152Z,23.27
2018-11-03T09:42:05.598Z,25.63
2018-11-03T09:44:39.661Z,25.40
2018-11-03T09:47:13.515Z,23.00
2018-11-03T09:49:50.437Z,21.50
2018-11-03T09:52:24.501Z,22.23
2018-11-03T09:54:58.463Z,22.83
2018-11-03T09:57:32.393Z,23.53
2018-11-03T10:00:09.115Z,19.07
2018-11-03T10:02:43.083Z,19.40
2018-11-03T10:05:17.508Z,17.83
2018-11-03T10:07:51.371Z,17.93
2018-11-03T10:10:25.355Z,17.60
2018-11-03T10:12:59.205Z,19.67
2018-11-03T10:15:33.042Z,17.70
2018-11-03T10:18:08.112Z,18.20
2018-11-03T10:20:42.003Z,18.30
2018-11-03T10:23:15.840Z,18.53
2018-11-03T10:25:49.891Z,15.23
2018-11-03T10:28:23.737Z,17.53
2018-11-03T10:30:57.626Z,14.47
2018-11-03T10:33:31.552Z,13.63
2018-11-03T10:36:05.620Z,13.50
2018-11-03T10:38:39.502Z,16.77
2018-11-03T10:41:13.420Z,13.27
2018-11-03T10:43:47.260Z,12.77
2018-11-03T10:46:21.470Z,13.27
2018-11-03T10:48:55.435Z,13.67
2018-11-03T10:51:29.385Z,10.93
2018-11-03T10:54:03.930Z,12.33
2018-11-03T10:56:37.825Z,10.50
2018-11-03T10:59:11.761Z,15.07
2018-11-03T11:02:53.430Z,11.20
2018-11-03T11:05:32.580Z,10.17
2018-11-03T11:08:11.764Z,10.70
2018-11-03T11:10:50.806Z,8.90
2018-11-03T11:13:26.206Z,11.80
2018-11-03T11:16:00.397Z,11.20
2018-11-03T11:18:34.263Z,11.03
2018-11-03T11:21:08.095Z,7.60
2018-11-03T11:23:42.002Z,9.40
2018-11-03T11:26:15.849Z,9.87
2018-11-03T11:28:49.732Z,9.60
2018-11-03T11:31:23.587Z,8.33
2018-11-03T11:33:57.451Z,8.60
2018-11-03T11:36:31.220Z,8.93
2018-11-03T11:39:06.465Z,9.00
2018-11-03T11:41:40.380Z,6.90
2018-11-03T11:44:14.227Z,6.67
2018-11-03T11:46:48.086Z,8.20
2018-11-03T11:49:21.989Z,6.97
2018-11-03T11:51:55.850Z,6.53
2018-11-03T11:54:29.817Z,6.23
2018-11-03T11:57:03.670Z,5.30
2018-11-03T11:59:37.737Z,4.47
2018-11-03T12:02:11.822Z,4.80
2018-11-03T12:04:45.689Z,4.97
2018-11-03T12:07:19.573Z,4.03
2018-11-03T12:09:53.498Z,4.83
2018-11-03T12:12:27.322Z,4.70
2018-11-03T12:15:01.283Z,4.17
2018-11-03T12:17:35.142Z,4.73
2018-11-03T12:20:09.398Z,4.37
2018-11-03T12:22:43.194Z,3.33
2018-11-03T12:25:17.102Z,4.10
2018-11-03T12:27:50.931Z,3.60
2018-11-03T12:30:24.805Z,3.40
2018-11-03T12:32:58.666Z,3.73
2018-11-03T12:35:32.531Z,3.33
2018-11-03T12:38:06.483Z,3.53
2018-11-03T12:40:40.513Z,3.20
2018-11-03T12:43:14.333Z,3.80
2018-11-03T12:45:48.191Z,2.90
2018-11-03T12:48:22.197Z,3.57
2018-11-03T12:50:56.036Z,3.13
2018-11-03T12:53:29.873Z,3.30
2018-11-03T12:56:03.755Z,2.43
2018-11-03T12:58:37.594Z,2.70
2018-11-03T13:01:11.455Z,3.27
2018-11-03T13:03:45.327Z,2.87
2018-11-03T13:06:19.194Z,2.80
2018-11-03T13:08:53.010Z,2.80
2018-11-03T13:11:27.147Z,3.20
2018-11-03T13:14:01.000Z,2.93
2018-11-03T13:16:35.837Z,2.83
2018-11-03T13:19:09.743Z,3.03
2018-11-03T13:21:43.651Z,3.03
2018-11-03T13:24:17.507Z,2.50
2018-11-03T13:26:51.391Z,2.53
2018-11-03T13:29:25.307Z,2.27
2018-11-03T13:31:59.181Z,2.73
2018-11-03T13:34:33.012Z,2.90
2018-11-03T13:37:08.037Z,2.37
2018-11-03T13:39:42.037Z,2.03
2018-11-03T13:42:17.098Z,2.43
2018-11-03T13:44:50.900Z,2.40
2018-11-03T13:47:25.223Z,2.40
2018-11-03T13:49:59.211Z,2.30
2018-11-03T13:52:33.955Z,2.20
2018-11-03T13:55:08.403Z,2.00
2018-11-03T13:57:43.419Z,1.63
2018-11-03T14:00:18.794Z,2.00
2018-11-03T14:02:52.645Z,1.60
2018-11-03T14:05:27.079Z,1.97
2018-11-03T14:08:00.981Z,1.80
2018-11-03T14:10:34.810Z,1.90
2018-11-03T14:13:08.811Z,1.90
2018-11-03T14:15:42.660Z,1.70
2018-11-03T14:18:16.594Z,1.57
2018-11-03T14:20:50.667Z,1.93
2018-11-03T14:23:24.586Z,1.63
2018-11-03T14:25:58.424Z,1.60
2018-11-03T14:28:32.557Z,1.70
2018-11-03T14:31:06.401Z,1.87
2018-11-03T14:33:40.536Z,1.60
2018-11-03T14:36:14.433Z,1.57
2018-11-03T14:38:48.333Z,1.40
2018-11-03T14:41:22.185Z,1.70
2018-11-03T14:43:56.282Z,1.70
2018-11-03T14:46:30.488Z,1.57
2018-11-03T14:49:04.548Z,1.67
2018-11-03T14:51:38.585Z,1.60
2018-11-03T14:54:12.741Z,1.57
2018-11-03T14:56:46.743Z,1.30
2018-11-03T14:59:20.868Z,1.50
2018-11-03T15:01:54.941Z,1.50
2018-11-03T15:04:28.983Z,1.70
2018-11-03T15:07:02.843Z,1.67
2018-11-03T15:09:36.728Z,1.67
2018-11-03T15:12:10.657Z,1.70
2018-11-03T15:14:44.669Z,1.53
2018-11-03T15:17:18.509Z,1.80
2018-11-03T15:19:52.361Z,1.60
2018-11-03T15:22:26.556Z,2.40
2018-11-03T15:25:00.893Z,2.73
2018-11-03T15:27:34.968Z,3.10
2018-11-03T15:30:10.383Z,4.20
2018-11-03T15:32:44.350Z,4.83
2018-11-03T15:35:18.219Z,5.87
2018-11-03T15:37:52.004Z,5.90
2018-11-03T15:40:25.965Z,6.80
2018-11-03T15:42:59.783Z,6.77
2018-11-03T15:45:33.738Z,6.60
2018-11-03T15:48:07.629Z,7.03
2018-11-03T15:50:46.482Z,6.30
2018-11-03T15:53:20.594Z,6.13
2018-11-03T15:55:54.493Z,4.00
2018-11-03T15:58:28.310Z,3.90
2018-11-03T16:01:02.208Z,4.20
2018-11-03T16:03:36.076Z,4.77
2018-11-03T16:06:09.900Z,5.53
2018-11-03T16:08:43.851Z,9.90
2018-11-03T16:11:17.765Z,12.30
2018-11-03T16:13:51.620Z,7.97
2018-11-03T16:16:25.495Z,7.40
2018-11-03T16:18:59.517Z,6.63
2018-11-03T16:21:33.555Z,6.03
2018-11-03T16:24:07.416Z,5.53
2018-11-03T16:26:41.321Z,5.23
2018-11-03T16:29:15.098Z,4.90
2018-11-03T16:31:49.017Z,6.30
2018-11-03T16:34:23.029Z,6.00
2018-11-03T16:36:56.882Z,5.90
2018-11-03T16:39:30.717Z,6.20
2018-11-03T16:42:04.896Z,4.73
2018-11-03T16:44:38.737Z,4.63
2018-11-03T16:47:12.607Z,3.60
2018-11-03T16:49:46.508Z,2.80
2018-11-03T16:52:20.404Z,3.27
2018-11-03T16:54:54.248Z,2.77
2018-11-03T16:57:28.109Z,4.83
2018-11-03T17:00:02.023Z,4.77
2018-11-03T17:02:36.259Z,5.10
2018-11-03T17:05:11.334Z,6.40
2018-11-03T17:07:45.196Z,10.77
2018-11-03T17:10:19.119Z,10.47
2018-11-03T17:12:53.104Z,10.93
2018-11-03T17:15:26.915Z,11.10
2018-11-03T17:18:00.876Z,9.23
2018-11-03T17:20:34.819Z,9.63
2018-11-03T17:23:08.808Z,9.63
2018-11-03T17:25:42.602Z,10.80
2018-11-03T17:28:16.460Z,12.33
2018-11-03T17:30:50.369Z,13.83
2018-11-03T17:33:24.281Z,12.40
2018-11-03T17:35:58.131Z,10.80
2018-11-03T17:38:31.974Z,10.33
2018-11-03T17:41:05.959Z,9.63
2018-11-03T17:43:39.959Z,9.80
2018-11-03T17:46:13.867Z,8.00
2018-11-03T17:48:47.730Z,8.63
2018-11-03T17:51:22.028Z,7.97
2018-11-03T17:53:56.361Z,6.50
2018-11-03T17:56:30.720Z,5.63
2018-11-03T17:59:05.068Z,9.00
2018-11-03T18:01:39.210Z,10.53
2018-11-03T18:04:13.591Z,9.43
2018-11-03T18:06:47.916Z,11.27
2018-11-03T18:09:22.389Z,11.60
2018-11-03T18:11:56.511Z,11.83
2018-11-03T18:14:31.150Z,13.00
2018-11-03T18:17:05.393Z,10.57
2018-11-03T18:19:39.897Z,9.53
2018-11-03T18:22:14.248Z,6.53
2018-11-03T18:24:49.050Z,5.50
2018-11-03T18:27:23.236Z,4.50
2018-11-03T18:29:57.444Z,4.40
2018-11-03T18:32:31.829Z,4.90
2018-11-03T18:35:06.709Z,4.20
2018-11-03T18:37:41.037Z,4.77
2018-11-03T18:40:15.239Z,4.53
2018-11-03T18:42:49.682Z,4.20
2018-11-03T18:45:23.928Z,4.40
2018-11-03T18:47:58.081Z,5.07
2018-11-03T18:50:32.323Z,5.30
2018-11-03T18:53:06.904Z,5.27
2018-11-03T18:55:41.294Z,12.17
2018-11-03T18:58:15.375Z,10.57
2018-11-03T19:00:49.678Z,16.30
2018-11-03T19:03:24.054Z,12.90
2018-11-03T19:05:58.350Z,8.77
2018-11-03T19:08:32.644Z,7.70
2018-11-03T19:11:07.841Z,5.57
2018-11-03T19:13:42.159Z,6.23
2018-11-03T19:16:16.708Z,5.60
2018-11-03T19:18:50.862Z,4.73
2018-11-03T19:21:25.014Z,5.13
2018-11-03T19:23:59.432Z,5.10
2018-11-03T19:26:33.753Z,5.03
2018-11-03T19:29:07.978Z,5.00
2018-11-03T19:31:42.201Z,5.00
2018-11-03T19:34:16.417Z,4.93
2018-11-03T19:36:50.392Z,5.57
2018-11-03T19:39:24.192Z,5.40
2018-11-03T19:41:58.105Z,4.87
2018-11-03T19:44:31.903Z,5.40
2018-11-03T19:47:05.853Z,8.50
2018-11-03T19:49:39.658Z,7.27
2018-11-03T19:52:13.532Z,5.80
2018-11-03T19:54:47.383Z,5.20
2018-11-03T19:57:21.264Z,4.83
2018-11-03T19:59:55.070Z,4.40
2018-11-03T20:02:28.935Z,4.17
2018-11-03T20:05:02.769Z,4.10
2018-11-03T20:07:36.624Z,5.00
2018-11-03T20:10:10.598Z,4.67
2018-11-03T20:12:44.425Z,4.70
2018-11-03T20:15:18.282Z,4.13
2018-11-03T20:17:52.269Z,4.87
2018-11-03T20:20:26.089Z,4.13
2018-11-03T20:22:59.933Z,4.40
2018-11-03T20:25:33.739Z,4.17
2018-11-03T20:28:07.601Z,3.97
2018-11-03T20:30:41.426Z,3.77
2018-11-03T20:33:15.296Z,4.10
2018-11-03T20:35:49.114Z,3.47
2018-11-03T20:38:22.957Z,4.43
2018-11-03T20:40:56.858Z,3.77
2018-11-03T20:43:30.809Z,3.70
2018-11-03T20:46:04.678Z,3.80
2018-11-03T20:48:38.585Z,3.50
2018-11-03T20:51:13.097Z,3.70
2018-11-03T20:53:47.059Z,3.87
2018-11-03T20:56:20.857Z,4.00
2018-11-03T20:58:54.716Z,3.83
2018-11-03T21:01:28.571Z,4.00
2018-11-03T21:04:02.486Z,4.10
2018-11-03T21:06:36.316Z,4.10
2018-11-03T21:09:11.045Z,4.70
2018-11-03T21:11:44.880Z,4.33
2018-11-03T21:14:18.747Z,4.67
2018-11-03T21:16:52.562Z,4.87
2018-11-03T21:19:26.418Z,4.60
2018-11-03T21:22:00.371Z,4.43
2018-11-03T21:24:34.214Z,4.33
2018-11-03T21:27:09.682Z,5.30
2018-11-03T21:29:43.527Z,5.80
2018-11-03T21:32:17.405Z,6.93
2018-11-03T21:34:51.238Z,9.20
2018-11-03T21:37:25.052Z,8.47
2018-11-03T21:39:58.948Z,9.93
2018-11-03T21:42:32.797Z,9.03
2018-11-03T21:45:07.494Z,8.67
2018-11-03T21:47:41.288Z,8.60
2018-11-03T21:50:15.198Z,8.17
2018-11-03T21:52:49.019Z,8.90
2018-11-03T21:55:22.839Z,8.00
2018-11-03T21:57:56.662Z,7.07
2018-11-03T22:00:30.496Z,7.07
2018-11-03T22:03:04.348Z,7.47
2018-11-03T22:05:38.221Z,7.30
2018-11-03T22:08:12.056Z,6.70
2018-11-03T22:10:46.003Z,6.33
2018-11-03T22:13:19.827Z,6.20
2018-11-03T22:15:53.831Z,6.37
2018-11-03T22:18:27.628Z,6.20
2018-11-03T22:21:01.538Z,5.77
2018-11-03T22:23:35.361Z,7.53
2018-11-03T22:26:09.299Z,7.13
2018-11-03T22:28:43.096Z,6.33
2018-11-03T22:31:16.982Z,7.47
2018-11-03T22:33:50.788Z,6.67
2018-11-03T22:36:24.657Z,8.00
2018-11-03T22:38:59.165Z,8.10
2018-11-03T22:41:33.367Z,7.90
2018-11-03T22:44:07.216Z,7.00
2018-11-03T22:46:41.117Z,7.03
2018-11-03T22:49:14.996Z,7.10
2018-11-03T22:51:49.477Z,7.17
2018-11-03T22:54:23.235Z,7.30
2018-11-03T22:56:57.100Z,6.60
2018-11-03T22:59:30.928Z,6.67
2018-11-03T23:02:04.963Z,9.60
2018-11-03T23:04:38.914Z,7.13
2018-11-03T23:07:12.860Z,8.43
2018-11-03T23:09:46.668Z,7.67
2018-11-03T23:12:20.533Z,7.97
2018-11-03T23:14:54.387Z,6.87
2018-11-03T23:17:28.236Z,8.67
2018-11-03T23:20:02.050Z,7.30
2018-11-03T23:22:35.919Z,7.83
2018-11-03T23:25:10.456Z,7.63
2018-11-03T23:27:44.310Z,7.70
2018-11-03T23:30:18.204Z,9.27
2018-11-03T23:32:52.048Z,8.27
2018-11-03T23:35:25.914Z,10.07
2018-11-03T23:37:59.879Z,10.47
2018-11-03T23:40:33.736Z,9.37
2018-11-03T23:43:07.661Z,8.97
2018-11-03T23:45:41.468Z,8.47
2018-11-03T23:48:15.365Z,9.33
2018-11-03T23:50:49.194Z,9.40
2018-11-03T23:53:23.178Z,9.87
2018-11-03T23:55:57.082Z,9.03
2018-11-03T23:58:30.978Z,9.63
